Joplin Regional Airport
KJLN : now visible

Airfield :











YOU CAN JOIN US ON...

 
LOGIN :

Register | Disclaimer

   EN    FR    IT 

 









Legend :    VFR   Marginal VFR   IFR   Intensive IFR   Very Intensive IFR
Visi :
Ceiling :
>= 8 km
>= 3000ft
5 to 8 km
1000 to 3000 ft
1500m to 5 km
500 to 1000 ft
800 to 1500m
200 to 500 ft
< 800m
< 200 ft
Symbols :   Thunderstorms  Fog  Heavy snow  Heavy precipitations  Wind > 20 kt







- Airport Elevation : 981 ft
- IATA code : JLN


KJLN - Joplin Regional

CURRENT METAR :
  • 201116Z AUTO 22007KT 4SM BR OVC004 01/01 A2982 RMK AO2 T00110006

EXPIRED METARs :
  • 201104Z AUTO 22008KT 2SM BR OVC004 01/01 A2981 RMK AO2 T00110006
  • 201053Z AUTO 21007KT 1 3/4SM BR OVC004 01/01 A2981 RMK AO2 SLP100 T00110011
  • 201037Z AUTO 22008KT 1 1/2SM BR OVC004 01/01 A2982 RMK AO2 T00110006
  • 201023Z AUTO 21007KT 2 1/2SM BR OVC004 01/01 A2982 RMK AO2 T00110006
  • 200953Z AUTO 19006KT 4SM BR OVC006 01/01 A2983 RMK AO2 SLP104 T00110006
  • 200853Z AUTO 17005KT 9SM BKN007 OVC013 01/01 A2983 RMK AO2 SLP106 T00110006 56022
  • 200819Z AUTO 12004KT 10SM BKN006 OVC017 01/01 A2983 RMK AO2 T00060006

TAF KJLN
Valid from the 20 at 08:00 until the 21 at 06:00 UTC


200750Z 2008/2106 VRB06KT 6SM BR OVC006
TEMPO 2008/2012 3SM -DZ BR OVC003
FM201200 21009KT P6SM OVC003
FM201700 23010KT P6SM BKN030
FM202200 24012KT P6SM BKN110
KZKC FIR / North America



MET'MAP, your aeronautical weather chart ! - Copyright ORBIFLY December 2007 - Disclaimer

ORBIFLY MET'MAP TEAM :

Programming & Development : Alexandra Zaïnal
Concept & Development : Baudouin d'Aumeries
Co-Development & Prog : Marc-Olivier Méhu
Technical & hardware support : Manuel Goepfert

Contact : metmap@orbifly.com




SOURCES & CREDITS :

   NOAA       Earth
Advisory